Latest Coastal Weather Observations for Dennes Point

IDT60701

Issued at 8:02 am EST Saturday 4 July 2015 (issued every 10 minutes, with the page automatically refreshed every 10 minutes)

About coastal observations | Map of coastal stations | Coastal observations for TAS | Marine services | Other Formats
Station Details ID: 094255 Name: DENNES POINT Lat: -43.06 Lon: 147.36 Height: 5.67 m
Data from the previous 72 hours. | See also: Recent months at Dennes Point
Date/Time
EST
Temp

°C
Wind Pressure Rain
since 9am
mm
Weather Cloud Vis
km
Sea
Height
m
Swell
Dir
 
Speed
knots
Gust
knots
hPa Trend Height
m
Period
s
Dir
04/08:00am 11.7 WSW 8 16 1009.3 - 0.0 - - - - - - -
04/07:30am 10.8 WSW 4 9 1009.4 - 0.0 - - - - - - -
04/07:00am 10.9 NW 7 9 1009.2 - 0.0 - - - - - - -
04/06:30am 10.6 NNW 8 11 1008.9 - 0.0 - - - - - - -
04/06:00am 10.4 NNW 11 15 1008.5 - 0.0 - - - - - - -
04/05:30am 10.6 N 10 13 1008.3 - 0.0 - - - - - - -
04/05:00am 10.4 N 12 15 1008.2 - 0.0 - - - - - - -
04/04:30am 10.6 N 12 16 1008.1 - 0.0 - - - - - - -
04/04:00am 10.6 N 16 20 1008.2 - 0.0 - - - - - - -
04/03:30am 11.0 N 8 11 1008.4 - 0.0 - - - - - - -
04/03:00am 10.7 NNW 7 11 1008.9 - 0.0 - - - - - - -
04/02:30am 10.4 NNW 9 12 1009.3 - 0.0 - - - - - - -
04/02:00am 10.2 NNW 11 15 1009.9 - 0.0 - - - - - - -
04/01:30am 10.4 NNW 10 13 1010.1 - 0.0 - - - - - - -
04/01:00am 10.2 NNW 12 17 1009.9 - 0.0 - - - - - - -
04/12:30am 10.1 NW 12 16 1010.4 - 0.0 - - - - - - -
04/12:00am 10.5 NNW 11 16 1011.3 - 0.0 - - - - - - -
 
Date/Time
EST
Temp

°C
Wind Pressure Rain
since 9am
mm
Weather Cloud Vis
km
Sea
Height
m
Swell
Dir
 
Speed
knots
Gust
knots
hPa Trend Height
m
Period
s
Dir
03/11:30pm 10.9 NW 12 17 1011.7 - 0.0 - - - - - - -
03/11:00pm 10.8 WNW 13 19 1011.9 - 0.0 - - - - - - -
03/10:30pm 10.4 WNW 11 19 1012.5 - 0.0 - - - - - - -
03/10:00pm 10.4 WNW 13 17 1012.6 - 0.0 - - - - - - -
03/09:30pm 10.4 WNW 15 21 1013.2 - 0.0 - - - - - - -
03/09:01pm 10.5 WNW 22 33 1013.1 - 0.0 - - - - - - -
03/09:00pm 10.5 WNW 22 29 1013.0 - 0.0 - - - - - - -
03/08:37pm 10.5 W 22 32 1013.1 - 0.0 - - - - - - -
03/08:30pm 10.6 W 22 30 1013.1 - 0.0 - - - - - - -
03/08:00pm 10.4 WNW 22 30 1013.2 - 0.0 - - - - - - -
03/07:30pm 10.1 W 17 24 1014.0 - 0.0 - - - - - - -
03/07:00pm 10.1 W 12 23 1014.5 - 0.0 - - - - - - -
03/06:30pm 10.5 WNW 11 25 1014.6 - 0.0 - - - - - - -
03/06:00pm 10.0 WNW 10 16 1015.2 - 0.0 - - - - - - -
03/05:30pm 10.0 WNW 10 14 1015.3 - 0.0 - - - - - - -
03/05:00pm 10.1 WNW 6 13 1015.4 - 0.0 - - - - - - -
03/04:30pm 10.5 WNW 6 16 1015.6 - 0.0 - - - - - - -
03/04:00pm 11.3 NNW 6 10 1015.6 - 0.0 - - - - - - -
03/03:30pm 11.3 WNW 5 8 1016.2 - 0.0 - - - - - - -
03/03:00pm 11.1 W 8 15 1016.3 - 0.0 - - - - - - -
03/02:30pm 11.2 WNW 12 15 1016.6 - 0.0 - - - - - - -
03/02:00pm 11.8 WNW 10 16 1017.1 - 0.0 - - - - - - -
03/01:30pm 11.5 NW 7 10 1017.7 - 0.0 - - - - - - -
03/01:00pm 10.9 N 8 17 1018.3 - 0.0 - - - - - - -
03/12:30pm 11.6 W 9 12 1018.9 - 0.0 - - - - - - -
03/12:00pm 11.0 WNW 10 13 1019.3 - 0.0 - - - - - - -
03/11:30am 10.7 NW 3 5 1020.0 - 0.0 - - - - - - -
03/11:00am 10.2 NW 9 13 1020.6 - 0.0 - - - - - - -
03/10:30am 9.7 WNW 11 21 1020.8 - 0.0 - - - - - - -
03/10:00am 9.3 NW 8 15 1021.1 - 0.0 - - - - - - -
03/09:30am 8.8 WNW 11 15 1021.3 - 0.0 - - - - - - -
03/09:00am 8.5 WNW 12 21 1021.2 - 0.2 - - - - - - -
03/08:30am 8.3 WNW 12 15 1021.3 - 0.2 - - - - - - -
03/08:00am 7.1 N 5 7 1021.3 - 0.2 - - - - - - -
03/07:30am 7.2 N 7 9 1021.5 - 0.2 - - - - - - -
03/07:00am 7.3 NNW 7 8 1021.2 - 0.2 - - - - - - -
03/06:30am 6.5 WSW 2 5 1021.2 - 0.2 - - - - - - -
03/06:00am 6.9 WSW 2 6 1021.1 - 0.2 - - - - - - -
03/05:30am 6.6 WNW 2 4 1021.2 - 0.2 - - - - - - -
03/05:00am 6.7 W 6 9 1021.2 - 0.2 - - - - - - -
03/04:30am 7.5 NW 6 9 1021.3 - 0.2 - - - - - - -
03/04:00am 6.7 NNW 2 4 1021.5 - 0.2 - - - - - - -
03/03:30am 6.7 WSW 8 11 1021.7 - 0.2 - - - - - - -
03/03:00am 6.1 W 5 6 1022.4 - 0.2 - - - - - - -
03/02:30am 6.9 WNW 8 12 1022.5 - 0.2 - - - - - - -
03/02:00am 6.9 W 9 12 1022.5 - 0.2 - - - - - - -
03/01:30am 6.8 NW 7 8 1022.4 - 0.2 - - - - - - -
03/01:00am 6.7 W 8 10 1022.3 - 0.2 - - - - - - -
03/12:30am 6.7 WSW 11 14 1022.2 - 0.2 - - - - - - -
03/12:00am 6.7 W 13 17 1022.2 - 0.2 - - - - - - -
 
Date/Time
EST
Temp

°C
Wind Pressure Rain
since 9am
mm
Weather Cloud Vis
km
Sea
Height
m
Swell
Dir
 
Speed
knots
Gust
knots
hPa Trend Height
m
Period
s
Dir
02/11:30pm 6.8 WSW 10 14 1022.2 - 0.2 - - - - - - -
02/11:00pm 6.4 W 12 16 1022.1 - 0.2 - - - - - - -
02/10:30pm 6.5 W 11 15 1021.6 - 0.2 - - - - - - -
02/10:00pm 6.1 W 9 12 1022.0 - 0.2 - - - - - - -
02/09:30pm 6.3 W 10 12 1021.7 - 0.2 - - - - - - -
02/09:00pm 6.1 WNW 10 12 1021.6 - 0.2 - - - - - - -
02/08:30pm 6.1 W 10 11 1021.1 - 0.2 - - - - - - -
02/08:00pm 6.0 W 8 11 1021.0 - 0.2 - - - - - - -
02/07:30pm 6.2 W 8 12 1020.6 - 0.2 - - - - - - -
02/07:00pm 6.2 WSW 10 15 1020.1 - 0.2 - - - - - - -
02/06:30pm 6.5 WSW 11 15 1019.5 - 0.2 - - - - - - -
02/06:00pm 6.1 WSW 7 9 1019.0 - 0.2 - - - - - - -
02/05:30pm 6.5 WSW 12 15 1018.8 - 0.2 - - - - - - -
02/05:00pm 6.6 WSW 13 17 1018.6 - 0.2 - - - - - - -
02/04:30pm 6.8 WSW 17 23 1018.2 - 0.2 - - - - - - -
02/04:00pm 7.6 WSW 12 16 1017.6 - 0.2 - - - - - - -
02/03:30pm 8.1 WSW 13 18 1017.3 - 0.2 - - - - - - -
02/03:00pm 7.9 WSW 11 15 1016.4 - 0.2 - - - - - - -
02/02:30pm 8.2 SW 14 19 1015.8 - 0.2 - - - - - - -
02/02:00pm 7.6 SW 17 24 1015.4 - 0.2 - - - - - - -
02/01:50pm 7.7 SW 17 27 1015.2 - 0.0 - - - - - - -
02/01:30pm 7.9 SW 11 16 1014.8 - 0.0 - - - - - - -
02/01:00pm 8.2 SW 13 17 1014.2 - 0.0 - - - - - - -
02/12:30pm 7.7 WSW 14 18 1014.1 - 0.0 - - - - - - -
02/12:00pm 7.3 WSW 13 19 1013.9 - 0.0 - - - - - - -
02/11:30am 7.1 WSW 13 19 1013.7 - 0.0 - - - - - - -
02/11:00am 7.3 WSW 16 19 1013.1 - 0.0 - - - - - - -
02/10:30am 7.6 WSW 17 23 1012.4 - 0.0 - - - - - - -
02/10:00am 7.8 W 17 23 1012.0 - 0.0 - - - - - - -
02/09:30am 7.7 W 18 24 1011.1 - 0.0 - - - - - - -
02/09:00am 6.9 W 15 20 1010.9 - 2.8 - - - - - - -
02/08:30am 6.3 W 17 20 1009.9 - 2.8 - - - - - - -
02/08:00am 6.3 W 16 21 1009.9 - 2.8 - - - - - - -
02/07:30am 6.5 W 11 17 1009.5 - 2.8 - - - - - - -
02/07:00am 6.3 W 16 20 1008.9 - 2.8 - - - - - - -
02/06:30am 5.8 W 18 25 1008.1 - 2.8 - - - - - - -
02/06:00am 6.1 W 24 34 1007.3 - 2.8 Rain - - - - - -
02/05:52am 6.1 W 20 31 1007.6 - 2.6 - - - - - - -
02/05:30am 6.8 W 17 22 1007.6 - 2.6 - - - - - - -
02/05:09am 6.9 W 17 27 1007.1 - 2.6 - - - - - - -
02/05:07am 6.8 W 14 24 1007.1 - 2.6 - - - - - - -
02/05:00am 6.5 W 6 13 1007.1 - 2.6 - - - - - - -
02/04:30am 6.4 NNW 6 10 1006.6 - 2.6 - - - - - - -
02/04:00am 6.4 NW 9 15 1006.2 - 2.6 - - - - - - -
02/03:30am 6.2 WSW 15 25 1006.4 - 2.6 - - - - - - -
02/03:13am 6.6 W 21 33 1006.0 - 2.6 - - - - - - -
02/03:00am 6.6 W 16 26 1006.4 - 2.6 Recent precip. - - - - - -
02/02:30am 6.3 W 19 26 1006.1 - 2.6 - - - - - - -
02/02:00am 7.3 W 26 37 1006.0 - 2.0 - - - - - - -
02/01:47am 7.3 W 26 37 1005.4 - 2.0 - - - - - - -
02/01:30am 7.6 W 26 34 1004.9 - 2.0 - - - - - - -
02/01:06am 7.6 W 26 43 1004.8 - 2.0 - - - - - - -
02/01:00am 7.3 W 23 31 1005.0 - 2.0 - - - - - - -
02/12:33am 7.5 WSW 28 47 1005.9 - 2.0 - - - - - - -
02/12:30am 6.9 WSW 32 47 1005.8 - 2.0 - - - - - - -
02/12:27am 7.3 WSW 32 47 1005.9 - 2.0 - - - - - - -
02/12:24am 7.1 W 30 47 1005.7 - 1.8 - - - - - - -
02/12:23am 7.9 W 28 47 1005.8 - 1.6 - - - - - - -
02/12:17am 8.6 W 22 35 1005.1 - 1.6 - - - - - - -
02/12:00am 8.5 W 23 29 1004.6 - 1.6 Recent precip. - - - - - -
 
Date/Time
EST
Temp

°C
Wind Pressure Rain
since 9am
mm
Weather Cloud Vis
km
Sea
Height
m
Swell
Dir
 
Speed
knots
Gust
knots
hPa Trend Height
m
Period
s
Dir
01/11:33pm 7.9 W 25 35 1005.2 - 1.4 - - - - - - -
01/11:30pm 8.0 W 26 35 1005.5 - 1.4 - - - - - - -
01/11:23pm 8.3 W 29 49 1005.4 - 1.2 - - - - - - -
01/11:16pm 8.1 W 24 49 1005.2 - 1.0 - - - - - - -
01/11:15pm 8.2 W 22 40 1005.2 - 1.0 - - - - - - -
01/11:12pm 8.4 W 18 28 1005.2 - 0.8 - - - - - - -
01/11:00pm 8.3 WNW 16 23 1004.7 - 0.8 - - - - - - -
01/10:30pm 7.9 W 19 25 1004.7 - 0.8 - - - - - - -
01/10:00pm 8.6 WSW 18 24 1005.6 - 0.6 - - - - - - -
01/09:30pm 8.4 W 16 21 1004.8 - 0.6 - - - - - - -
01/09:00pm 8.2 W 23 28 1004.4 - 0.6 Recent precip. - - - - - -
01/08:30pm 7.8 W 22 29 1005.8 - 0.6 - - - - - - -
01/08:12pm 8.1 WSW 17 28 1006.4 - 0.2 - - - - - - -
01/08:00pm 8.3 WSW 21 27 1006.2 - 0.2 - - - - - - -
01/07:30pm 11.4 WSW 14 25 1005.4 - 0.0 - - - - - - -
01/07:26pm 11.7 SW 9 25 1005.1 - 0.0 - - - - - - -
01/07:00pm 13.1 ENE 3 6 1003.8 - 0.0 - - - - - - -
01/06:30pm 13.3 N 9 15 1003.8 - 0.0 - - - - - - -
01/06:00pm 12.6 NW 8 14 1004.2 - 0.0 - - - - - - -
01/05:30pm 12.9 NNW 7 12 1005.7 - 0.0 - - - - - - -
01/05:00pm 12.8 N 11 15 1006.3 - 0.0 - - - - - - -
01/04:30pm 12.6 N 13 19 1006.8 - 0.0 - - - - - - -
01/04:00pm 12.5 N 11 16 1007.7 - 0.0 - - - - - - -
01/03:30pm 13.5 NW 8 12 1008.5 - 0.0 - - - - - - -
01/03:00pm 13.7 NW 6 12 1009.1 - 0.0 - - - - - - -
01/02:30pm 13.2 NW 10 19 1009.7 - 0.0 - - - - - - -
01/02:00pm 13.0 NW 10 14 1010.4 - 0.0 - - - - - - -
01/01:30pm 12.6 NNW 10 13 1011.0 - 0.0 - - - - - - -
01/01:00pm 12.0 NNW 12 18 1011.9 - 0.0 - - - - - - -
01/12:30pm 12.8 NNW 9 14 1012.7 - 0.0 - - - - - - -
01/12:00pm 11.3 NNE 11 14 1013.7 - 0.0 - - - - - - -
01/11:30am 11.1 N 14 18 1014.7 - 0.0 - - - - - - -
01/11:00am 10.6 N 17 22 1015.6 - 0.0 - - - - - - -
01/10:30am 10.8 N 13 17 1016.2 - 0.0 - - - - - - -
01/10:00am 10.5 N 13 16 1017.0 - 0.0 - - - - - - -
01/09:30am 9.8 N 9 12 1017.6 - 0.0 - - - - - - -
01/09:00am 10.1 NNW 12 15 1018.1 - 0.0 - - - - - - -
01/08:30am 10.0 N 4 6 1018.4 - 0.0 - - - - - - -

Other Formats:

Comma delimited format used in spreadsheet applications
http://www.bom.gov.au/fwo/IDT60701/IDT60701.94988.axf

JavaScript Object Notation format (JSON) in row-major order
http://www.bom.gov.au/fwo/IDT60701/IDT60701.94988.json